Hood Airport


Codes: NZMS/MRO
Name: Hood Airport
City: Masterton
Country: New Zealand
Elevation: 364 ft.
Website:
Wikipedia:

Photos at Hood Airport


   Photos courtesy of SpottingLog. You can add your own sightings and photos by signing up for a free trial today.



No photos found.

Weather at Hood Airport


Time (UTC)DescriptionTempratureWindCloud coverageVisibilityPressureHumidity
15-Apr-2024 18:00Clear Sky8°C2 mph, NW4%10000m1016hPa96%
15-Apr-2024 21:00Clear Sky10°C0 mph, NW3%10000m1016hPa90%
16-Apr-2024 00:00Clear Sky15°C4 mph, W1%10000m1015hPa63%
16-Apr-2024 03:00Clear Sky19°C4 mph, W0%10000m1013hPa39%
16-Apr-2024 06:00Clear Sky12°C2 mph, NW0%10000m1014hPa69%
16-Apr-2024 09:00Clear Sky9°C2 mph, N0%10000m1015hPa94%
16-Apr-2024 12:00Clear Sky9°C2 mph, N0%10000m1015hPa95%
16-Apr-2024 15:00Clear Sky9°C2 mph, NW1%10000m1014hPa95%
16-Apr-2024 18:00Clear Sky9°C2 mph, NW8%10000m1015hPa95%
16-Apr-2024 21:00Broken Clouds14°C2 mph, SW66%10000m1016hPa82%
17-Apr-2024 00:00Broken Clouds19°C7 mph, SW77%10000m1016hPa58%
17-Apr-2024 03:00Light Rain16°C9 mph, SW100%10000m1016hPa75%
17-Apr-2024 06:00Light Rain13°C4 mph, SW100%10000m1018hPa86%
17-Apr-2024 09:00Overcast Clouds12°C2 mph, W97%10000m1019hPa92%
17-Apr-2024 12:00Overcast Clouds11°C2 mph, NE91%10000m1018hPa94%
17-Apr-2024 15:00Broken Clouds10°C2 mph, N60%10000m1018hPa95%
17-Apr-2024 18:00Scattered Clouds9°C2 mph, N40%10000m1017hPa96%
17-Apr-2024 21:00Clear Sky13°C2 mph, N7%10000m1017hPa81%
18-Apr-2024 00:00Clear Sky18°C7 mph, NW6%10000m1015hPa47%
18-Apr-2024 03:00Clear Sky17°C7 mph, NW0%10000m1013hPa45%
18-Apr-2024 06:00Clear Sky11°C4 mph, N0%10000m1013hPa79%
18-Apr-2024 09:00Scattered Clouds10°C4 mph, N35%10000m1013hPa86%
18-Apr-2024 12:00Broken Clouds11°C9 mph, NW58%10000m1012hPa82%
18-Apr-2024 15:00Overcast Clouds14°C18 mph, NW88%10000m1012hPa69%
18-Apr-2024 18:00Broken Clouds14°C13 mph, NW83%10000m1013hPa73%
18-Apr-2024 21:00Broken Clouds16°C11 mph, NW73%10000m1013hPa68%
19-Apr-2024 00:00Scattered Clouds18°C16 mph, NW40%10000m1012hPa57%
19-Apr-2024 03:00Broken Clouds17°C11 mph, W74%10000m1012hPa58%
19-Apr-2024 06:00Broken Clouds12°C2 mph, NW62%10000m1014hPa80%
19-Apr-2024 09:00Overcast Clouds10°C2 mph, W93%10000m1018hPa93%
19-Apr-2024 12:00Overcast Clouds10°C2 mph, SW96%10000m1021hPa93%
19-Apr-2024 15:00Overcast Clouds12°C0 mph, SE100%10000m1021hPa89%
19-Apr-2024 18:00Overcast Clouds12°C2 mph, NE100%10000m1022hPa91%
19-Apr-2024 21:00Overcast Clouds13°C7 mph, NE100%10000m1022hPa82%
20-Apr-2024 00:00Overcast Clouds17°C7 mph, NE100%10000m1020hPa60%
20-Apr-2024 03:00Overcast Clouds19°C7 mph, N100%10000m1017hPa52%
20-Apr-2024 06:00Overcast Clouds14°C4 mph, NE100%10000m1016hPa80%
20-Apr-2024 09:00Overcast Clouds12°C2 mph, N100%10000m1017hPa92%
20-Apr-2024 12:00Overcast Clouds11°C2 mph, N100%10000m1015hPa94%
20-Apr-2024 15:00Overcast Clouds10°C2 mph, N100%10000m1014hPa94%